Time;durP1;ratioP1;P1;durP2;ratioP2;P2;SDS_P1;SDS_P2;PMS_P1;PMS_P2;Temp;Humidity;BMP_temperature;BMP_pressure;BME280_temperature;BME280_humidity;BME280_pressure;Samples;Min_cycle;Max_cycle;Signal;HPM_P1;HPM_P2
2022/01/23 00:02:08;;;;;;;5.97;3.37;;;;;;;;;;5017770;28;20458;-72
2022/01/23 00:04:37;;;;;;;7.33;3.70;;;;;;;;;;5017022;28;20816;-72
2022/01/23 00:07:07;;;;;;;4.00;2.63;;;;;;;;;;5017106;28;20451;-73
2022/01/23 00:09:35;;;;;;;5.00;3.00;;;;;;;;;;5017485;28;20455;-72
2022/01/23 00:12:08;;;;;;;4.97;2.70;;;;;;;;;;5017123;28;20466;-72
2022/01/23 00:17:21;;;;;;;8.67;2.77;;;;;;;;;;5018040;28;20595;-72
2022/01/23 00:19:50;;;;;;;7.73;2.80;;;;;;;;;;5016993;28;20781;-72
2022/01/23 00:22:19;;;;;;;4.50;2.90;;;;;;;;;;5018556;28;20525;-72
2022/01/23 00:30:26;;;;;;;6.60;3.23;;;;;;;;;;5007009;28;20449;-72
2022/01/23 00:32:55;;;;;;;4.23;3.10;;;;;;;;;;5018092;28;21399;-73
2022/01/23 00:35:23;;;;;;;3.87;2.13;;;;;;;;;;5017329;28;20748;-73
2022/01/23 00:37:51;;;;;;;6.23;2.80;;;;;;;;;;5016982;28;20546;-72
2022/01/23 00:40:19;;;;;;;6.30;3.70;;;;;;;;;;5016811;28;20491;-72
2022/01/23 00:42:48;;;;;;;3.30;2.23;;;;;;;;;;5016813;28;20451;-72
2022/01/23 00:45:29;;;;;;;6.47;3.40;;;;;;;;;;5017479;28;20731;-73
2022/01/23 00:48:01;;;;;;;5.93;2.50;;;;;;;;;;5017032;28;20452;-72
2022/01/23 00:50:29;;;;;;;5.30;2.50;;;;;;;;;;5016993;28;20459;-73
2022/01/23 00:52:57;;;;;;;5.70;3.50;;;;;;;;;;5017465;28;20871;-73
2022/01/23 00:55:25;;;;;;;6.30;2.70;;;;;;;;;;5017130;28;20459;-72
2022/01/23 00:57:54;;;;;;;5.60;2.80;;;;;;;;;;5016536;28;20459;-72
2022/01/23 01:00:22;;;;;;;4.17;2.53;;;;;;;;;;5016468;28;20491;-72
2022/01/23 01:02:50;;;;;;;4.53;2.57;;;;;;;;;;5016264;28;20456;-73
2022/01/23 01:05:21;;;;;;;4.13;2.97;;;;;;;;;;5016232;28;20459;-73
2022/01/23 01:07:49;;;;;;;3.67;2.53;;;;;;;;;;5016452;28;20463;-73
2022/01/23 01:10:22;;;;;;;4.93;3.20;;;;;;;;;;5005483;28;20465;-73
2022/01/23 01:12:53;;;;;;;4.70;2.70;;;;;;;;;;5016478;28;20462;-73
2022/01/23 01:15:33;;;;;;;4.23;2.60;;;;;;;;;;5016376;28;20779;-73
2022/01/23 01:31:57;;;;;;;5.70;3.60;;;;;;;;;;5005892;28;20442;-73
2022/01/23 01:34:32;;;;;;;5.30;3.20;;;;;;;;;;5015887;28;20478;-72
2022/01/23 01:37:01;;;;;;;5.97;3.80;;;;;;;;;;5015166;28;20459;-73
2022/01/23 01:39:29;;;;;;;5.17;3.30;;;;;;;;;;5016300;28;20740;-72
2022/01/23 01:41:58;;;;;;;5.93;3.60;;;;;;;;;;5016733;28;20552;-73
2022/01/23 01:44:27;;;;;;;6.00;2.77;;;;;;;;;;5015859;28;20458;-72
2022/01/23 01:46:56;;;;;;;4.63;3.00;;;;;;;;;;5016276;28;20497;-72
2022/01/23 01:49:28;;;;;;;4.90;3.00;;;;;;;;;;5015277;28;20451;-72
2022/01/23 01:51:56;;;;;;;7.63;3.37;;;;;;;;;;5016183;28;20455;-72
2022/01/23 01:54:26;;;;;;;4.83;3.37;;;;;;;;;;5015608;28;20513;-72
2022/01/23 01:57:05;;;;;;;5.40;3.10;;;;;;;;;;5019837;28;21086;-72
2022/01/23 01:59:49;;;;;;;5.43;3.20;;;;;;;;;;5019213;28;20465;-72
2022/01/23 02:10:41;;;;;;;7.93;3.90;;;;;;;;;;5019088;28;20438;-72
2022/01/23 02:13:12;;;;;;;6.30;3.77;;;;;;;;;;5019270;28;20602;-73
2022/01/23 02:18:32;;;;;;;5.90;3.30;;;;;;;;;;4999549;28;20424;-73
2022/01/23 02:24:22;;;;;;;4.50;2.63;;;;;;;;;;5019087;28;21020;-73
2022/01/23 02:51:50;;;;;;;5.73;4.40;;;;;;;;;;5018503;28;20466;-73
2022/01/23 02:54:42;;;;;;;8.93;4.50;;;;;;;;;;5018844;28;20447;-73
2022/01/23 02:57:11;;;;;;;6.23;3.07;;;;;;;;;;5018678;28;20744;-72
2022/01/23 02:59:41;;;;;;;5.03;3.13;;;;;;;;;;5018589;28;20521;-72
2022/01/23 03:02:11;;;;;;;5.93;4.27;;;;;;;;;;5017833;28;20506;-73
2022/01/23 03:04:47;;;;;;;5.67;3.27;;;;;;;;;;5018651;28;20487;-72
2022/01/23 03:07:32;;;;;;;5.93;3.80;;;;;;;;;;5016584;28;20459;-72
2022/01/23 03:10:04;;;;;;;6.90;4.03;;;;;;;;;;5018158;28;20460;-72
2022/01/23 03:15:25;;;;;;;5.37;3.07;;;;;;;;;;5018811;28;20545;-73
2022/01/23 03:26:22;;;;;;;8.20;3.40;;;;;;;;;;5017639;28;20438;-73
2022/01/23 03:29:18;;;;;;;4.33;3.07;;;;;;;;;;5018063;28;20884;-71
2022/01/23 03:32:19;;;;;;;6.10;3.70;;;;;;;;;;5017516;28;20455;-72
2022/01/23 03:34:46;;;;;;;6.47;3.60;;;;;;;;;;5018849;28;20466;-75
2022/01/23 03:37:14;;;;;;;5.03;3.37;;;;;;;;;;5017428;28;20755;-73
2022/01/23 03:39:42;;;;;;;6.20;4.20;;;;;;;;;;5017351;28;20482;-73
2022/01/23 03:42:16;;;;;;;7.00;3.47;;;;;;;;;;5017899;28;20483;-72
2022/01/23 03:44:58;;;;;;;8.13;4.53;;;;;;;;;;5018090;28;20460;-73
2022/01/23 03:47:36;;;;;;;6.60;4.07;;;;;;;;;;5017051;28;20455;-73
2022/01/23 03:50:03;;;;;;;9.10;5.13;;;;;;;;;;5017871;28;20558;-73
2022/01/23 03:52:33;;;;;;;7.37;4.60;;;;;;;;;;5017724;28;20514;-73
2022/01/23 03:55:03;;;;;;;9.00;5.40;;;;;;;;;;5018303;28;20473;-73
2022/01/23 03:57:32;;;;;;;6.07;4.53;;;;;;;;;;5017605;28;20462;-73
2022/01/23 04:00:04;;;;;;;5.70;3.63;;;;;;;;;;5017497;28;20463;-73
2022/01/23 04:02:32;;;;;;;6.40;4.30;;;;;;;;;;5016742;28;20483;-73
2022/01/23 04:05:00;;;;;;;6.07;4.10;;;;;;;;;;5017228;28;20532;-73
2022/01/23 04:07:28;;;;;;;5.90;3.70;;;;;;;;;;5017521;28;20447;-73
2022/01/23 04:09:56;;;;;;;6.60;4.20;;;;;;;;;;5017741;28;20464;-73
2022/01/23 04:12:37;;;;;;;6.03;3.73;;;;;;;;;;5017052;28;20451;-73
2022/01/23 04:15:14;;;;;;;6.30;3.07;;;;;;;;;;5017840;28;20851;-73
2022/01/23 04:20:44;;;;;;;3.87;2.37;;;;;;;;;;5017347;28;20443;-73
2022/01/23 04:32:03;;;;;;;7.23;4.10;;;;;;;;;;5016621;28;20431;-73
2022/01/23 04:34:39;;;;;;;5.03;3.40;;;;;;;;;;5017400;28;20454;-72
2022/01/23 04:45:31;;;;;;;6.50;3.20;;;;;;;;;;5016594;28;20506;-73
2022/01/23 05:02:01;;;;;;;6.27;2.73;;;;;;;;;;5016363;28;20498;-72
2022/01/23 05:04:35;;;;;;;4.23;2.70;;;;;;;;;;5017186;28;20455;-74
2022/01/23 05:07:06;;;;;;;10.83;3.20;;;;;;;;;;5017023;28;20492;-73
2022/01/23 05:09:34;;;;;;;4.67;2.63;;;;;;;;;;5016503;28;20457;-73
2022/01/23 05:12:02;;;;;;;4.90;2.90;;;;;;;;;;5016557;28;20864;-72
2022/01/23 05:14:33;;;;;;;5.10;2.93;;;;;;;;;;5016378;28;20467;-74
2022/01/23 05:17:02;;;;;;;4.80;3.07;;;;;;;;;;5016923;28;20474;-74
2022/01/23 05:19:30;;;;;;;4.57;2.67;;;;;;;;;;5015917;28;20872;-73
2022/01/23 05:24:49;;;;;;;5.30;3.10;;;;;;;;;;5016216;28;20541;-73
2022/01/23 05:27:21;;;;;;;3.63;2.17;;;;;;;;;;5017113;28;20454;-74
2022/01/23 05:29:49;;;;;;;3.43;2.53;;;;;;;;;;5016836;28;20463;-74
2022/01/23 05:32:17;;;;;;;4.17;2.50;;;;;;;;;;5021101;28;20533;-74
2022/01/23 05:34:45;;;;;;;4.50;2.83;;;;;;;;;;5020822;28;20458;-74
2022/01/23 05:37:17;;;;;;;4.70;3.00;;;;;;;;;;5020220;28;20455;-74
2022/01/23 05:39:45;;;;;;;5.93;2.93;;;;;;;;;;5020813;28;20474;-73
2022/01/23 05:42:13;;;;;;;4.40;2.77;;;;;;;;;;5020622;28;20572;-73
2022/01/23 05:44:41;;;;;;;4.47;3.20;;;;;;;;;;5020248;28;21559;-73
2022/01/23 05:47:10;;;;;;;6.43;3.13;;;;;;;;;;5020470;28;20735;-73
2022/01/23 05:49:37;;;;;;;4.80;3.00;;;;;;;;;;5019684;28;20450;-74
2022/01/23 05:52:05;;;;;;;4.37;3.10;;;;;;;;;;5020219;28;20909;-73
2022/01/23 05:54:35;;;;;;;4.80;2.77;;;;;;;;;;5020291;28;20501;-73
2022/01/23 05:57:02;;;;;;;5.93;3.40;;;;;;;;;;5019887;28;20515;-73
2022/01/23 05:59:30;;;;;;;4.70;3.03;;;;;;;;;;5020030;28;20810;-72
2022/01/23 06:01:58;;;;;;;4.67;3.53;;;;;;;;;;5019358;28;20518;-74
2022/01/23 06:04:26;;;;;;;4.50;2.67;;;;;;;;;;5019666;28;20544;-73
2022/01/23 06:06:55;;;;;;;4.60;3.27;;;;;;;;;;5000443;28;20954;-73
2022/01/23 06:09:23;;;;;;;6.03;3.03;;;;;;;;;;5018006;28;20534;-74
2022/01/23 06:11:52;;;;;;;6.30;2.53;;;;;;;;;;5020184;28;20455;-73
2022/01/23 06:14:20;;;;;;;4.60;2.90;;;;;;;;;;5019668;28;20737;-73
2022/01/23 06:16:48;;;;;;;4.30;2.50;;;;;;;;;;5020139;28;20522;-73
2022/01/23 06:19:16;;;;;;;5.50;3.57;;;;;;;;;;5019463;28;20728;-73
2022/01/23 06:21:43;;;;;;;5.50;3.00;;;;;;;;;;5019492;28;20486;-73
2022/01/23 06:24:21;;;;;;;6.43;3.37;;;;;;;;;;5019727;28;20478;-73
2022/01/23 06:26:49;;;;;;;8.30;4.13;;;;;;;;;;5019431;28;20470;-74
2022/01/23 06:29:19;;;;;;;5.40;3.47;;;;;;;;;;5019028;28;20462;-73
2022/01/23 06:31:47;;;;;;;5.30;3.37;;;;;;;;;;5018738;28;20841;-73
2022/01/23 06:34:17;;;;;;;5.97;2.93;;;;;;;;;;5018683;28;20466;-73
2022/01/23 06:36:45;;;;;;;5.87;3.63;;;;;;;;;;5018655;28;20460;-72
2022/01/23 06:39:14;;;;;;;4.70;2.40;;;;;;;;;;5018888;28;20457;-71
2022/01/23 06:41:42;;;;;;;6.00;3.67;;;;;;;;;;5019150;28;20805;-73
2022/01/23 06:44:11;;;;;;;5.00;3.30;;;;;;;;;;5019033;28;20462;-73
2022/01/23 06:46:41;;;;;;;9.87;3.80;;;;;;;;;;5019365;28;20558;-74
2022/01/23 06:49:22;;;;;;;5.97;3.20;;;;;;;;;;5018930;28;20864;-72
2022/01/23 06:51:51;;;;;;;7.23;3.43;;;;;;;;;;5018719;28;20840;-73
2022/01/23 06:54:18;;;;;;;11.40;4.47;;;;;;;;;;5018907;28;20475;-73
2022/01/23 06:56:49;;;;;;;6.07;2.90;;;;;;;;;;5018950;28;21163;-73
2022/01/23 06:59:17;;;;;;;5.57;3.50;;;;;;;;;;5017436;28;20480;-73
2022/01/23 07:01:49;;;;;;;5.23;3.07;;;;;;;;;;5017703;28;20586;-73
2022/01/23 07:04:17;;;;;;;6.47;3.43;;;;;;;;;;5018775;28;20454;-73
2022/01/23 07:06:55;;;;;;;;;;;;;;;;;;;;;
2022/01/23 07:09:24;;;;;;;5.00;2.90;;;;;;;;;;5007395;28;20455;-72
2022/01/23 07:11:52;;;;;;;3.60;2.57;;;;;;;;;;5018199;28;20459;-72
2022/01/23 07:14:20;;;;;;;4.80;3.30;;;;;;;;;;5018844;28;20525;-73
2022/01/23 07:16:50;;;;;;;6.13;3.60;;;;;;;;;;5018313;28;20466;-73
2022/01/23 07:19:19;;;;;;;8.17;4.20;;;;;;;;;;5018496;28;20485;-73
2022/01/23 07:21:52;;;;;;;6.67;3.57;;;;;;;;;;5018370;28;20501;-73
2022/01/23 07:24:30;;;;;;;7.57;4.20;;;;;;;;;;5010196;28;20471;-73
2022/01/23 07:26:59;;;;;;;7.73;4.47;;;;;;;;;;5017666;28;20455;-73
2022/01/23 07:29:27;;;;;;;7.67;4.70;;;;;;;;;;5003247;28;20908;-73
2022/01/23 07:31:58;;;;;;;7.10;4.37;;;;;;;;;;5010833;28;20554;-73
2022/01/23 07:34:26;;;;;;;6.43;4.27;;;;;;;;;;5017189;28;20455;-73
2022/01/23 07:36:53;;;;;;;7.43;4.13;;;;;;;;;;5017851;28;20840;-74
2022/01/23 07:39:21;;;;;;;6.30;4.30;;;;;;;;;;5017802;28;20459;-74
2022/01/23 07:41:49;;;;;;;10.83;4.10;;;;;;;;;;5017514;28;20911;-73
2022/01/23 07:44:16;;;;;;;7.17;4.57;;;;;;;;;;5018323;28;20463;-73
2022/01/23 07:46:44;;;;;;;5.43;3.97;;;;;;;;;;5017554;28;20459;-73
2022/01/23 07:49:13;;;;;;;8.03;4.10;;;;;;;;;;5017545;28;20450;-73
2022/01/23 07:51:41;;;;;;;10.40;5.47;;;;;;;;;;5017475;28;20545;-72
2022/01/23 07:54:09;;;;;;;9.57;5.30;;;;;;;;;;5017066;28;20493;-73
2022/01/23 07:56:38;;;;;;;8.10;4.97;;;;;;;;;;5017106;28;20459;-73
2022/01/23 07:59:06;;;;;;;10.40;4.43;;;;;;;;;;5018727;28;20455;-73
2022/01/23 08:01:42;;;;;;;7.37;4.13;;;;;;;;;;5017908;28;20466;-73
2022/01/23 08:04:14;;;;;;;9.57;4.90;;;;;;;;;;5017514;28;20451;-72
2022/01/23 08:06:45;;;;;;;11.47;4.10;;;;;;;;;;5018023;28;20455;-73
2022/01/23 08:09:14;;;;;;;7.77;4.80;;;;;;;;;;5017518;28;20526;-73
2022/01/23 08:11:43;;;;;;;10.10;5.60;;;;;;;;;;5017175;28;20454;-72
2022/01/23 08:14:10;;;;;;;11.40;6.10;;;;;;;;;;5016643;28;20451;-72
2022/01/23 08:16:38;;;;;;;13.90;6.60;;;;;;;;;;5016978;28;20447;-73
2022/01/23 08:19:06;;;;;;;15.57;6.20;;;;;;;;;;5016954;28;20444;-72
2022/01/23 08:21:35;;;;;;;10.47;5.50;;;;;;;;;;5016236;28;20456;-73
2022/01/23 08:24:03;;;;;;;9.53;4.50;;;;;;;;;;5016403;28;20487;-73
2022/01/23 08:26:31;;;;;;;9.00;4.87;;;;;;;;;;5014416;28;20459;-72
2022/01/23 08:28:59;;;;;;;9.77;5.37;;;;;;;;;;5015883;28;20447;-72
2022/01/23 08:31:26;;;;;;;9.20;4.67;;;;;;;;;;5016052;28;20470;-72
2022/01/23 08:33:57;;;;;;;11.83;5.43;;;;;;;;;;5014325;28;20477;-72
2022/01/23 08:36:25;;;;;;;7.77;4.23;;;;;;;;;;5015175;28;20564;-72
2022/01/23 08:38:54;;;;;;;14.00;5.47;;;;;;;;;;5014492;28;20463;-72
2022/01/23 08:44:07;;;;;;;7.53;4.23;;;;;;;;;;5016430;28;20566;-72
2022/01/23 08:46:35;;;;;;;8.50;4.97;;;;;;;;;;5015637;28;20455;-72
2022/01/23 08:49:02;;;;;;;9.70;6.20;;;;;;;;;;5016076;28;20813;-72
2022/01/23 08:51:30;;;;;;;10.60;5.57;;;;;;;;;;5015947;28;20473;-72
2022/01/23 08:54:03;;;;;;;11.60;5.80;;;;;;;;;;5016198;28;20455;-73
2022/01/23 08:56:33;;;;;;;7.37;3.90;;;;;;;;;;5014094;28;20454;-73
2022/01/23 08:59:03;;;;;;;10.30;5.17;;;;;;;;;;4996620;28;20455;-73
2022/01/23 09:01:31;;;;;;;9.07;4.60;;;;;;;;;;5009449;28;20535;-72
2022/01/23 09:03:59;;;;;;;9.73;5.60;;;;;;;;;;5025631;28;20496;-72
2022/01/23 09:06:27;;;;;;;12.13;6.03;;;;;;;;;;5026023;28;20494;-72
2022/01/23 09:08:55;;;;;;;11.30;4.70;;;;;;;;;;5017132;28;20829;-72
2022/01/23 09:11:38;;;;;;;10.10;4.93;;;;;;;;;;5014809;28;20470;-73
2022/01/23 09:14:10;;;;;;;8.57;4.60;;;;;;;;;;5018385;28;20462;-73
2022/01/23 09:16:38;;;;;;;8.03;5.20;;;;;;;;;;5019002;28;21238;-72
2022/01/23 09:19:07;;;;;;;12.40;4.67;;;;;;;;;;5019348;28;20451;-72
2022/01/23 09:21:36;;;;;;;9.40;5.07;;;;;;;;;;5019539;28;20443;-72
2022/01/23 09:24:04;;;;;;;6.83;4.90;;;;;;;;;;5019330;28;21210;-72
2022/01/23 09:26:37;;;;;;;8.70;4.77;;;;;;;;;;5019324;28;20443;-73
2022/01/23 09:29:13;;;;;;;7.67;4.43;;;;;;;;;;5019328;28;20451;-72
2022/01/23 09:31:48;;;;;;;11.27;5.97;;;;;;;;;;5018472;28;20754;-72
2022/01/23 09:34:16;;;;;;;5.87;4.73;;;;;;;;;;5019053;28;20528;-72
2022/01/23 09:36:44;;;;;;;12.63;8.83;;;;;;;;;;5019433;28;20541;-72
2022/01/23 09:39:15;;;;;;;12.00;7.20;;;;;;;;;;5007313;28;20470;-73
2022/01/23 09:41:47;;;;;;;10.80;6.07;;;;;;;;;;5019485;28;20841;-73
2022/01/23 09:44:15;;;;;;;11.43;6.80;;;;;;;;;;5018584;28;20841;-72
2022/01/23 09:46:43;;;;;;;9.40;5.20;;;;;;;;;;5017999;28;20453;-71
2022/01/23 09:49:19;;;;;;;9.00;5.03;;;;;;;;;;5019434;28;20467;-72
2022/01/23 09:51:49;;;;;;;13.57;6.10;;;;;;;;;;5017355;28;20490;-72
2022/01/23 09:54:18;;;;;;;9.70;6.87;;;;;;;;;;4999594;28;20455;-71
2022/01/23 09:56:47;;;;;;;10.30;6.40;;;;;;;;;;5009830;28;20451;-73
2022/01/23 09:59:18;;;;;;;11.33;5.80;;;;;;;;;;5018535;28;20467;-73
2022/01/23 10:02:05;;;;;;;13.70;7.13;;;;;;;;;;5019206;28;20447;-72
2022/01/23 10:04:38;;;;;;;9.83;6.07;;;;;;;;;;5018396;28;20447;-72
2022/01/23 10:07:09;;;;;;;14.37;8.60;;;;;;;;;;5019338;28;20427;-73
2022/01/23 10:09:37;;;;;;;12.67;6.33;;;;;;;;;;5015490;28;20517;-74
2022/01/23 10:12:07;;;;;;;7.80;4.63;;;;;;;;;;5019107;28;20789;-72
2022/01/23 10:14:36;;;;;;;9.77;5.60;;;;;;;;;;5018302;28;20513;-72
2022/01/23 10:17:06;;;;;;;10.47;7.47;;;;;;;;;;5018845;28;20451;-74
2022/01/23 10:19:34;;;;;;;11.60;5.83;;;;;;;;;;5019278;28;20506;-73
2022/01/23 10:22:06;;;;;;;10.70;7.07;;;;;;;;;;5018623;28;20891;-73
2022/01/23 10:24:34;;;;;;;10.57;6.23;;;;;;;;;;5018387;28;20465;-73
2022/01/23 10:27:02;;;;;;;10.23;6.20;;;;;;;;;;5016215;28;21152;-72
2022/01/23 10:29:36;;;;;;;9.57;6.50;;;;;;;;;;5010692;28;20459;-72
2022/01/23 10:32:10;;;;;;;16.13;8.17;;;;;;;;;;5018426;28;20457;-72
2022/01/23 10:34:43;;;;;;;19.97;8.17;;;;;;;;;;5018457;28;20470;-71
2022/01/23 10:37:14;;;;;;;12.27;5.50;;;;;;;;;;5018028;28;20501;-73
2022/01/23 10:39:43;;;;;;;12.90;7.27;;;;;;;;;;5016747;28;20463;-72
2022/01/23 10:48:38;;;;;;;14.87;6.37;;;;;;;;;;4976746;28;20450;-73
2022/01/23 10:51:19;;;;;;;10.93;8.13;;;;;;;;;;5016818;28;20474;-72
2022/01/23 10:54:05;;;;;;;11.73;7.00;;;;;;;;;;5017829;28;20541;-72
2022/01/23 10:56:34;;;;;;;19.23;6.50;;;;;;;;;;5016895;28;20473;-71
2022/01/23 10:59:05;;;;;;;14.20;7.80;;;;;;;;;;5017681;28;20444;-72
2022/01/23 11:01:34;;;;;;;13.00;7.20;;;;;;;;;;5017458;28;20443;-72
2022/01/23 11:04:10;;;;;;;12.57;6.90;;;;;;;;;;5017420;28;20803;-73
2022/01/23 11:06:54;;;;;;;14.17;7.43;;;;;;;;;;5017458;28;20451;-73
2022/01/23 11:09:26;;;;;;;13.93;6.50;;;;;;;;;;5015890;28;20524;-72
2022/01/23 11:12:01;;;;;;;8.63;5.67;;;;;;;;;;5016726;28;20463;-72
2022/01/23 11:17:29;;;;;;;9.20;5.23;;;;;;;;;;5017330;28;20418;-73
2022/01/23 11:20:12;;;;;;;12.50;5.73;;;;;;;;;;5007698;28;20447;-72
2022/01/23 11:22:40;;;;;;;8.93;6.17;;;;;;;;;;5015373;28;20475;-72
2022/01/23 11:25:09;;;;;;;10.97;6.70;;;;;;;;;;5015832;28;20487;-72
2022/01/23 11:27:49;;;;;;;16.63;6.00;;;;;;;;;;5015908;28;20485;-73
2022/01/23 11:30:21;;;;;;;11.20;5.40;;;;;;;;;;5016665;28;20995;-73
2022/01/23 11:32:50;;;;;;;12.47;7.73;;;;;;;;;;5017022;28;20546;-72
2022/01/23 11:35:19;;;;;;;13.10;6.10;;;;;;;;;;5016609;28;20455;-72
2022/01/23 11:37:52;;;;;;;15.73;7.13;;;;;;;;;;5016530;28;20895;-72
2022/01/23 11:40:33;;;;;;;13.03;7.07;;;;;;;;;;5015307;28;20933;-72
2022/01/23 11:54:14;;;;;;;15.60;9.33;;;;;;;;;;4994573;28;20530;-72
2022/01/23 11:56:44;;;;;;;13.97;10.70;;;;;;;;;;5014640;28;20538;-72
2022/01/23 11:59:31;;;;;;;19.60;10.07;;;;;;;;;;5012187;28;20524;-71
2022/01/23 12:02:26;;;;;;;20.07;10.37;;;;;;;;;;5007149;28;20459;-72
2022/01/23 12:05:12;;;;;;;18.40;11.63;;;;;;;;;;5015810;28;20475;-73
2022/01/23 12:07:42;;;;;;;21.80;10.70;;;;;;;;;;5014650;28;20562;-73
2022/01/23 12:10:22;;;;;;;17.43;9.63;;;;;;;;;;5016390;28;20513;-73
2022/01/23 12:12:52;;;;;;;26.40;9.53;;;;;;;;;;5002588;28;20582;-71
2022/01/23 12:18:14;;;;;;;19.77;11.10;;;;;;;;;;5014692;28;20449;-72
2022/01/23 12:20:42;;;;;;;12.37;8.53;;;;;;;;;;5014472;28;20455;-72
2022/01/23 12:23:11;;;;;;;21.87;9.90;;;;;;;;;;5015255;28;20628;-72
2022/01/23 12:25:43;;;;;;;20.23;10.70;;;;;;;;;;5016028;28;20451;-72
2022/01/23 12:28:28;;;;;;;18.57;10.23;;;;;;;;;;5009048;28;20599;-72
2022/01/23 12:31:03;;;;;;;20.60;11.07;;;;;;;;;;5011667;28;20455;-72
2022/01/23 12:33:49;;;;;;;12.87;8.47;;;;;;;;;;5014783;28;20446;-72
2022/01/23 12:36:22;;;;;;;15.23;7.57;;;;;;;;;;5015139;28;20443;-72
2022/01/23 12:38:53;;;;;;;25.43;9.47;;;;;;;;;;5014786;28;20914;-72
2022/01/23 12:41:32;;;;;;;11.57;7.70;;;;;;;;;;5014327;28;20478;-73
2022/01/23 12:44:02;;;;;;;14.53;7.00;;;;;;;;;;5014614;28;20485;-73
2022/01/23 12:46:37;;;;;;;18.27;8.07;;;;;;;;;;5014713;28;20462;-73
2022/01/23 12:49:28;;;;;;;19.80;9.27;;;;;;;;;;5013978;28;20879;-73
2022/01/23 12:52:13;;;;;;;18.07;6.60;;;;;;;;;;5015663;28;20523;-73
2022/01/23 12:54:53;;;;;;;11.70;8.40;;;;;;;;;;5015088;28;20454;-73
2022/01/23 12:57:23;;;;;;;8.37;6.53;;;;;;;;;;5014227;28;20494;-73
2022/01/23 12:59:56;;;;;;;12.20;6.80;;;;;;;;;;5015874;28;20942;-73
2022/01/23 13:02:29;;;;;;;12.13;6.80;;;;;;;;;;5015012;28;20463;-72
2022/01/23 13:04:58;;;;;;;10.17;7.80;;;;;;;;;;5007201;28;20992;-73
2022/01/23 13:07:38;;;;;;;12.50;6.27;;;;;;;;;;5014541;28;20894;-73
2022/01/23 13:10:22;;;;;;;11.17;6.63;;;;;;;;;;5014873;28;20529;-72
2022/01/23 13:12:56;;;;;;;7.20;6.07;;;;;;;;;;5014898;28;21104;-72
2022/01/23 13:15:44;;;;;;;9.70;6.80;;;;;;;;;;5014840;28;20446;-72
2022/01/23 13:18:33;;;;;;;12.80;7.50;;;;;;;;;;5014955;28;20465;-72
2022/01/23 13:27:14;;;;;;;10.27;6.57;;;;;;;;;;4983597;28;20442;-72
2022/01/23 13:29:58;;;;;;;10.27;7.27;;;;;;;;;;5014994;28;20474;-72
2022/01/23 13:32:39;;;;;;;9.93;7.70;;;;;;;;;;5014989;28;20439;-71
2022/01/23 13:35:15;;;;;;;11.13;7.07;;;;;;;;;;5015205;28;20447;-72
2022/01/23 13:37:55;;;;;;;13.00;6.40;;;;;;;;;;5015319;28;21058;-73
2022/01/23 13:40:58;;;;;;;7.00;5.80;;;;;;;;;;5009710;28;20456;-73
2022/01/23 13:51:57;;;;;;;11.70;4.30;;;;;;;;;;5028012;28;20445;-73
2022/01/23 14:00:13;;;;;;;3.47;2.57;;;;;;;;;;5004799;28;20450;-73
2022/01/23 14:02:42;;;;;;;3.70;2.53;;;;;;;;;;5013041;28;20822;-72
2022/01/23 14:05:13;;;;;;;4.23;3.43;;;;;;;;;;5016854;28;20490;-73
2022/01/23 14:07:48;;;;;;;4.73;3.47;;;;;;;;;;5018549;28;20471;-73
2022/01/23 14:10:25;;;;;;;8.63;4.13;;;;;;;;;;5019055;28;20447;-73
2022/01/23 14:12:54;;;;;;;4.80;3.40;;;;;;;;;;5023995;28;20480;-72
2022/01/23 14:15:23;;;;;;;12.73;4.90;;;;;;;;;;5022785;28;20550;-72
2022/01/23 14:18:00;;;;;;;6.93;4.00;;;;;;;;;;5029178;28;20476;-72
2022/01/23 14:20:31;;;;;;;2.27;2.03;;;;;;;;;;5037524;28;20486;-72
2022/01/23 14:23:00;;;;;;;3.93;2.10;;;;;;;;;;5019205;28;20478;-72
2022/01/23 14:25:29;;;;;;;5.23;2.50;;;;;;;;;;5018480;28;20487;-72
2022/01/23 14:28:04;;;;;;;2.30;1.43;;;;;;;;;;5018344;28;20528;-72
2022/01/23 14:30:33;;;;;;;3.73;2.17;;;;;;;;;;5017008;28;20505;-72
2022/01/23 14:33:12;;;;;;;4.10;2.00;;;;;;;;;;5016967;28;20466;-72
2022/01/23 14:35:39;;;;;;;2.70;1.57;;;;;;;;;;5017685;28;20470;-73
2022/01/23 14:38:13;;;;;;;9.20;2.50;;;;;;;;;;5019470;28;20575;-72
2022/01/23 14:40:42;;;;;;;8.87;3.10;;;;;;;;;;5019053;28;20456;-72
2022/01/23 14:43:15;;;;;;;3.53;1.80;;;;;;;;;;5017695;28;20498;-72
2022/01/23 14:45:45;;;;;;;3.93;2.30;;;;;;;;;;5016553;28;20509;-72
2022/01/23 14:48:14;;;;;;;4.50;1.73;;;;;;;;;;5016948;28;20534;-72
2022/01/23 14:50:43;;;;;;;3.20;2.50;;;;;;;;;;5017538;28;20443;-71
2022/01/23 14:53:14;;;;;;;4.63;2.60;;;;;;;;;;5017054;28;20459;-72
2022/01/23 14:55:44;;;;;;;4.30;3.37;;;;;;;;;;5036937;28;20446;-71
2022/01/23 14:58:13;;;;;;;6.13;4.60;;;;;;;;;;5037672;28;20770;-72
2022/01/23 15:00:42;;;;;;;5.57;4.50;;;;;;;;;;5038039;28;20458;-72
2022/01/23 15:03:12;;;;;;;7.00;3.70;;;;;;;;;;5017823;28;20455;-72
2022/01/23 15:05:41;;;;;;;6.27;4.60;;;;;;;;;;5016941;28;20490;-72
2022/01/23 15:08:21;;;;;;;4.73;3.77;;;;;;;;;;5016192;28;20470;-73
2022/01/23 15:10:55;;;;;;;6.83;2.10;;;;;;;;;;5013459;28;20451;-72
2022/01/23 15:13:24;;;;;;;10.67;3.17;;;;;;;;;;4986408;28;20872;-72
2022/01/23 15:15:53;;;;;;;6.80;4.97;;;;;;;;;;5006366;28;20455;-72
2022/01/23 15:18:23;;;;;;;5.17;2.93;;;;;;;;;;5017503;28;20823;-72
2022/01/23 15:21:07;;;;;;;5.83;3.37;;;;;;;;;;5016574;28;20486;-71
2022/01/23 15:23:34;;;;;;;6.80;4.10;;;;;;;;;;5017439;28;20487;-74
2022/01/23 15:26:04;;;;;;;5.07;3.30;;;;;;;;;;5013988;28;20462;-73
2022/01/23 15:28:38;;;;;;;5.63;4.97;;;;;;;;;;5016031;28;21060;-72
2022/01/23 15:31:10;;;;;;;5.50;3.20;;;;;;;;;;5018051;28;20786;-73
2022/01/23 15:33:41;;;;;;;9.10;4.50;;;;;;;;;;5018692;28;20463;-73
2022/01/23 15:36:10;;;;;;;5.33;2.80;;;;;;;;;;5019990;28;20546;-72
2022/01/23 15:38:44;;;;;;;9.87;5.00;;;;;;;;;;5017649;28;20452;-72
2022/01/23 15:41:20;;;;;;;5.43;3.80;;;;;;;;;;5018591;28;20482;-72
2022/01/23 15:43:51;;;;;;;8.83;4.67;;;;;;;;;;5017261;28;20490;-72
2022/01/23 15:46:19;;;;;;;5.27;3.10;;;;;;;;;;5000069;28;20526;-73
2022/01/23 15:48:49;;;;;;;8.90;3.80;;;;;;;;;;5015402;28;20939;-73
2022/01/23 15:51:23;;;;;;;7.40;4.03;;;;;;;;;;5018381;28;20547;-73
2022/01/23 15:53:53;;;;;;;7.17;3.90;;;;;;;;;;5016874;28;20895;-72
2022/01/23 15:56:29;;;;;;;6.37;3.47;;;;;;;;;;5010798;28;20450;-72
2022/01/23 15:58:57;;;;;;;5.53;3.40;;;;;;;;;;5018883;28;20485;-73
2022/01/23 16:01:25;;;;;;;3.50;2.30;;;;;;;;;;5016490;28;20451;-72
2022/01/23 16:03:54;;;;;;;4.97;3.67;;;;;;;;;;5015875;28;20483;-73
2022/01/23 16:06:23;;;;;;;5.70;3.80;;;;;;;;;;5016441;28;20763;-72
2022/01/23 16:08:51;;;;;;;8.23;3.93;;;;;;;;;;5016117;28;20455;-72
2022/01/23 16:11:19;;;;;;;6.60;3.80;;;;;;;;;;5019896;28;20455;-72
2022/01/23 16:13:50;;;;;;;8.33;3.37;;;;;;;;;;5015387;28;20563;-71
2022/01/23 16:16:18;;;;;;;6.53;3.43;;;;;;;;;;5015998;28;20447;-71
2022/01/23 16:18:46;;;;;;;5.00;3.13;;;;;;;;;;5015318;28;20550;-71
2022/01/23 16:21:17;;;;;;;4.70;2.80;;;;;;;;;;5016384;28;20463;-72
2022/01/23 16:23:45;;;;;;;7.67;5.20;;;;;;;;;;5028789;28;20919;-72
2022/01/23 16:26:14;;;;;;;7.73;3.97;;;;;;;;;;5015660;28;20547;-71
2022/01/23 16:28:42;;;;;;;7.07;4.17;;;;;;;;;;5015635;28;20463;-71
2022/01/23 16:31:11;;;;;;;7.47;5.20;;;;;;;;;;5015025;28;20444;-73
2022/01/23 16:33:39;;;;;;;10.63;4.97;;;;;;;;;;5014991;28;20467;-73
2022/01/23 16:36:10;;;;;;;9.23;4.00;;;;;;;;;;5016576;28;20606;-72
2022/01/23 16:38:40;;;;;;;7.87;4.60;;;;;;;;;;5015678;28;20459;-71
2022/01/23 16:41:09;;;;;;;7.57;4.20;;;;;;;;;;5016362;28;20447;-71
2022/01/23 16:43:37;;;;;;;6.27;4.70;;;;;;;;;;5015245;28;20475;-71
2022/01/23 16:46:05;;;;;;;6.70;4.70;;;;;;;;;;5016491;28;20483;-73
2022/01/23 16:48:33;;;;;;;11.33;4.93;;;;;;;;;;5017296;28;20482;-72
2022/01/23 16:51:02;;;;;;;8.73;5.57;;;;;;;;;;5016327;28;20526;-72
2022/01/23 16:53:37;;;;;;;8.93;4.93;;;;;;;;;;5017543;28;21051;-72
2022/01/23 16:56:12;;;;;;;11.33;5.77;;;;;;;;;;5017606;28;20488;-73
2022/01/23 16:58:41;;;;;;;11.53;5.50;;;;;;;;;;5017272;28;20469;-72
2022/01/23 17:01:09;;;;;;;10.17;6.67;;;;;;;;;;5016421;28;20464;-71
2022/01/23 17:03:37;;;;;;;11.87;6.90;;;;;;;;;;5014875;28;20459;-72
2022/01/23 17:06:05;;;;;;;7.43;5.17;;;;;;;;;;5029862;28;20937;-72
2022/01/23 17:08:33;;;;;;;9.00;5.83;;;;;;;;;;5036564;28;20450;-72
2022/01/23 17:11:01;;;;;;;12.20;5.13;;;;;;;;;;5028593;28;20752;-72
2022/01/23 17:13:32;;;;;;;10.73;6.50;;;;;;;;;;5015085;28;20800;-73
2022/01/23 17:16:00;;;;;;;14.77;7.23;;;;;;;;;;5015313;28;20504;-71
2022/01/23 17:18:30;;;;;;;9.50;6.30;;;;;;;;;;5016769;28;20435;-71
2022/01/23 17:20:58;;;;;;;10.97;6.37;;;;;;;;;;5016613;28;20470;-71
2022/01/23 17:23:25;;;;;;;19.63;8.43;;;;;;;;;;5016749;28;20521;-71
2022/01/23 17:25:57;;;;;;;10.90;8.57;;;;;;;;;;5017272;28;20580;-72
2022/01/23 17:28:25;;;;;;;10.80;5.90;;;;;;;;;;5020128;28;20447;-71
2022/01/23 17:30:57;;;;;;;10.33;6.40;;;;;;;;;;5019517;28;20546;-71
2022/01/23 17:33:27;;;;;;;15.80;7.60;;;;;;;;;;5019837;28;20482;-72
2022/01/23 17:35:56;;;;;;;14.80;7.63;;;;;;;;;;5019603;28;20896;-72
2022/01/23 17:38:25;;;;;;;10.97;7.00;;;;;;;;;;5019716;28;20467;-73
2022/01/23 17:40:53;;;;;;;10.17;6.60;;;;;;;;;;5019055;28;20502;-72
2022/01/23 17:43:21;;;;;;;12.57;6.43;;;;;;;;;;5007557;28;20471;-72